Latest Weather Observations for Fitzroy Crossing

IDW60801

Issued at 2:05 pm WST Wednesday 22 October 2014 (issued every 30 minutes, with the page automatically refreshed every 10 minutes)

About weather observations | Map of weather stations | Latest weather observations for WA | Other Formats
Station Details ID: 003093 Name: FITZROY CROSSING AERO Lat: -18.18 Lon: 125.56 Height: 114.5 m
Data from the previous 72 hours. | See also: Recent months at Fitzroy Crossing
Date/Time
WST
Temp
°C
App
Temp
°C
Dew
Point
Rel
Hum
%
Delta-T
°C
Wind Press
QNH
hPa
Press
MSL
hPa
Rain
since 9 am
mm
Dir
 
Spd
km/h
Gust
km/h
Spd
kts
Gust
kts
22/02:00pm 40.7 37.0 4.5 11 19.9 E 13 19 7 10 1009.3 1008.4 0.0
22/01:30pm 40.5 37.0 5.6 12 19.5 NE 13 26 7 14 1009.6 1008.8 0.0
22/01:00pm 40.0 36.2 7.4 14 18.6 ENE 17 26 9 14 1009.9 1009.1 0.0
22/12:30pm 39.6 35.3 7.1 14 18.4 ENE 19 32 10 17 1010.5 1009.7 0.0
22/12:00pm 40.1 35.6 8.5 15 18.4 NNE 22 37 12 20 1011.2 1010.4 0.0
22/11:30am 39.1 35.0 8.7 16 17.6 NE 20 30 11 16 1011.6 1010.8 0.0
22/11:00am 38.7 35.7 9.3 17 17.2 NNE 15 28 8 15 1012.2 1011.4 0.0
22/10:30am 37.7 36.0 12.3 22 15.4 N 13 26 7 14 1012.7 1011.9 0.0
22/10:00am 36.9 36.1 13.0 24 14.6 NNW 9 24 5 13 1013.1 1012.3 0.0
22/09:30am 36.0 35.2 14.1 27 13.6 NW 11 20 6 11 1013.4 1012.6 0.0
22/09:00am 34.6 33.0 15.0 31 12.2 NW 17 26 9 14 1013.6 1012.8 0.0
22/08:30am 33.5 31.7 15.5 34 11.3 NNW 19 26 10 14 1013.7 1012.9 0.0
22/08:00am 32.6 31.8 16.0 36 10.4 NNW 15 22 8 12 1014.0 1013.1 0.0
22/07:30am 31.3 30.1 16.1 40 9.5 N 17 22 9 12 1014.0 1013.1 0.0
22/07:00am 29.7 29.7 17.2 47 7.9 N 13 17 7 9 1013.9 1013.0 0.0
22/06:30am 28.0 29.0 16.9 51 7.0 E 7 15 4 8 1013.5 1012.7 0.0
22/06:00am 26.6 27.2 16.8 55 6.1 NNE 9 9 5 5 1013.0 1012.2 0.0
22/05:30am 25.0 25.8 16.4 59 5.3 SE 7 13 4 7 1013.0 1012.2 0.0
22/05:00am 25.0 27.1 16.2 58 5.4 CALM 0 0 0 0 1012.5 1011.7 0.0
22/04:30am 24.4 25.3 16.1 60 5.1 NW 6 7 3 4 1011.8 1011.0 0.0
22/04:00am 25.1 26.0 16.5 59 5.3 N 7 11 4 6 1011.4 1010.6 0.0
22/03:30am 26.1 28.5 18.0 61 5.1 E 2 7 1 4 1011.5 1010.7 0.0
22/03:00am 26.3 27.7 17.9 60 5.3 ESE 7 13 4 7 1011.2 1010.4 0.0
22/02:30am 26.1 26.8 18.0 61 5.1 N 11 15 6 8 1010.5 1009.7 0.0
22/02:00am 26.7 27.0 18.0 59 5.5 NNW 13 17 7 9 1010.7 1009.9 0.0
22/01:30am 27.5 27.2 18.2 57 5.9 NNW 17 19 9 10 1010.8 1010.0 0.0
22/01:00am 27.6 27.2 16.2 49 7.1 NNW 13 17 7 9 1011.1 1010.3 0.0
22/12:30am 28.4 27.0 13.5 40 8.9 N 13 17 7 9 1011.3 1010.5 0.0
22/12:00am 28.8 26.9 11.8 35 9.9 NW 13 17 7 9 1011.4 1010.6 0.0
 
Date/Time
WST
Temp
°C
App
Temp
°C
Dew
Point
Rel
Hum
%
Delta-T
°C
Wind Press
QNH
hPa
Press
MSL
hPa
Rain
since 9 am
mm
Dir
 
Spd
km/h
Gust
km/h
Spd
kts
Gust
kts
21/11:30pm 29.1 28.8 8.7 28 11.3 CALM 0 0 0 0 1011.1 1010.3 0.0
21/11:00pm 28.1 27.7 8.4 29 10.8 CALM 0 0 0 0 1011.4 1010.6 0.0
21/10:30pm 27.9 27.5 8.2 29 10.7 CALM 0 0 0 0 1011.7 1010.9 0.0
21/10:00pm 29.2 28.2 8.8 28 11.3 NE 4 9 2 5 1012.0 1011.2 0.0
21/09:30pm 30.0 28.0 10.0 29 11.4 E 11 13 6 7 1012.1 1011.3 0.0
21/09:00pm 30.7 28.2 9.6 27 12.0 E 13 13 7 7 1012.0 1011.2 0.0
21/08:30pm 31.9 31.8 9.4 25 12.8 CALM 0 0 0 0 1011.8 1011.0 0.0
21/08:00pm 32.5 32.2 8.7 23 13.4 ENE 0 0 0 0 1011.6 1010.8 0.0
21/07:30pm 34.1 33.6 8.0 20 14.6 CALM 0 0 0 0 1011.4 1010.6 0.0
21/07:00pm 35.8 34.2 7.8 18 15.8 N 6 7 3 4 1011.1 1010.3 0.0
21/06:30pm 36.6 34.7 6.7 16 16.6 N 6 7 3 4 1010.7 1009.9 0.0
21/06:00pm 37.4 35.1 7.3 16 17.0 NNE 9 11 5 6 1010.4 1009.6 0.0
21/05:30pm 38.1 35.7 7.0 15 17.5 N 9 11 5 6 1010.0 1009.2 0.0
21/05:00pm 39.2 36.4 6.8 14 18.3 NNE 11 15 6 8 1009.7 1008.9 0.0
21/04:30pm 40.2 37.1 5.4 12 19.3 SE 11 15 6 8 1009.4 1008.6 0.0
21/04:00pm 40.6 37.7 4.4 11 19.9 E 9 15 5 8 1009.2 1008.3 0.0
21/03:30pm 40.6 37.3 4.4 11 19.8 NNE 11 20 6 11 1009.2 1008.3 0.0
21/03:00pm 40.6 36.9 4.4 11 19.9 NNE 13 19 7 10 1009.2 1008.3 0.0
21/02:30pm 41.1 37.1 4.8 11 20.1 E 15 20 8 11 1009.3 1008.4 0.0
21/02:00pm 41.5 38.2 6.4 12 19.9 NNW 13 26 7 14 1009.4 1008.6 0.0
21/01:30pm 41.9 37.5 6.7 12 20.1 N 19 24 10 13 1009.7 1008.9 0.0
21/01:00pm 40.8 36.0 4.6 11 19.9 NNW 19 32 10 17 1010.3 1009.5 0.0
21/12:30pm 40.7 36.5 5.7 12 19.6 N 17 24 9 13 1010.9 1010.1 0.0
21/12:00pm 40.1 36.8 6.4 13 19.0 N 13 32 7 17 1011.5 1010.7 0.0
21/11:30am 40.4 34.7 6.7 13 19.1 NW 26 32 14 17 1012.2 1011.4 0.0
21/11:00am 39.1 34.2 6.7 14 18.2 N 22 35 12 19 1012.7 1011.9 0.0
21/10:30am 38.9 34.5 6.6 14 18.1 N 19 30 10 16 1013.2 1012.4 0.0
21/10:00am 38.2 33.7 6.0 14 17.9 NNW 19 24 10 13 1013.6 1012.8 0.0
21/09:30am 36.8 34.3 4.9 14 17.3 WNW 7 17 4 9 1013.9 1013.0 0.0
21/09:00am 35.8 33.4 5.1 15 16.6 N 7 13 4 7 1014.3 1013.4 0.0
21/08:30am 35.0 33.2 5.4 16 16.0 WSW 4 9 2 5 1014.4 1013.5 0.0
21/08:00am 34.0 30.9 5.5 17 15.4 WNW 11 13 6 7 1014.3 1013.4 0.0
21/07:30am 32.7 28.8 5.3 18 14.6 W 15 19 8 10 1014.0 1013.1 0.0
21/07:00am 31.2 27.5 6.3 21 13.4 WNW 15 20 8 11 1014.0 1013.1 0.0
21/06:30am 29.2 25.3 7.2 25 11.9 WNW 17 20 9 11 1013.7 1012.9 0.0
21/06:00am 27.3 24.0 8.2 30 10.4 WNW 15 19 8 10 1013.4 1012.6 0.0
21/05:30am 24.8 21.8 9.1 37 8.6 WNW 15 19 8 10 1013.3 1012.5 0.0
21/05:00am 24.1 21.6 9.7 40 7.9 NNW 13 15 7 8 1013.3 1012.5 0.0
21/04:30am 24.2 21.2 9.4 39 8.1 NNW 15 17 8 9 1012.7 1011.9 0.0
21/04:00am 24.3 21.2 8.7 37 8.4 NW 15 17 8 9 1012.2 1011.4 0.0
21/03:30am 24.4 21.3 7.1 33 9.1 NW 13 19 7 10 1012.0 1011.2 0.0
21/03:00am 24.8 21.4 6.1 30 9.7 NNW 13 15 7 8 1012.0 1011.2 0.0
21/02:30am 25.4 20.4 4.5 26 10.5 N 20 28 11 15 1011.8 1011.0 0.0
21/02:00am 24.4 21.1 6.2 31 9.4 SE 13 17 7 9 1011.2 1010.4 0.0
21/01:30am 25.0 22.6 4.2 26 10.4 SSE 6 7 3 4 1010.9 1010.1 0.0
21/01:00am 24.9 23.5 3.5 25 10.6 CALM 0 0 0 0 1010.6 1009.8 0.0
21/12:30am 25.8 23.4 4.3 25 10.8 E 6 7 3 4 1010.9 1010.1 0.0
21/12:00am 27.4 24.8 3.2 21 12.1 WNW 6 7 3 4 1011.1 1010.3 0.0
 
Date/Time
WST
Temp
°C
App
Temp
°C
Dew
Point
Rel
Hum
%
Delta-T
°C
Wind Press
QNH
hPa
Press
MSL
hPa
Rain
since 9 am
mm
Dir
 
Spd
km/h
Gust
km/h
Spd
kts
Gust
kts
20/11:30pm 27.4 24.7 3.8 22 11.9 NW 7 9 4 5 1011.4 1010.6 0.0
20/11:00pm 27.3 24.1 3.1 21 12.0 NNW 9 11 5 6 1011.8 1011.0 0.0
20/10:30pm 27.5 24.3 3.2 21 12.1 NNW 9 11 5 6 1012.0 1011.2 0.0
20/10:00pm 27.6 24.4 3.3 21 12.2 NNW 9 9 5 5 1012.3 1011.5 0.0
20/09:30pm 28.0 24.8 3.0 20 12.5 N 9 11 5 6 1012.2 1011.4 0.0
20/09:00pm 29.2 26.4 3.2 19 13.1 WSW 7 9 4 5 1012.1 1011.3 0.0
20/08:30pm 30.2 27.7 4.0 19 13.5 W 6 7 3 4 1012.0 1011.2 0.0
20/08:00pm 31.5 28.8 2.7 16 14.6 W 6 7 3 4 1011.8 1011.0 0.0
20/07:30pm 32.7 29.8 1.7 14 15.6 W 6 7 3 4 1011.6 1010.8 0.0
20/07:00pm 33.4 30.6 2.3 14 15.9 WSW 6 7 3 4 1011.3 1010.5 0.0
20/06:30pm 34.8 31.3 1.2 12 17.0 SW 9 11 5 6 1010.9 1010.1 0.0
20/06:00pm 36.0 32.8 0.9 11 17.8 SW 7 9 4 5 1010.5 1009.7 0.0
20/05:30pm 37.8 34.6 1.0 10 18.9 S 7 7 4 4 1010.1 1009.3 0.0
20/05:00pm 39.0 36.3 0.4 9 19.8 WSW 4 13 2 7 1009.8 1009.0 0.0
20/04:30pm 39.6 37.0 0.9 9 20.0 S 4 9 2 5 1009.6 1008.8 0.0
20/04:00pm 40.1 37.0 1.2 9 20.3 W 7 17 4 9 1009.4 1008.6 0.0
20/03:30pm 40.0 35.3 1.1 9 20.2 S 15 19 8 10 1009.5 1008.7 0.0
20/03:00pm 40.1 35.1 1.2 9 20.3 SW 17 26 9 14 1009.6 1008.8 0.0
20/02:30pm 40.4 34.8 1.4 9 20.4 S 20 24 11 13 1009.8 1009.0 0.0
20/02:00pm 40.5 36.5 3.0 10 20.1 W 13 22 7 12 1010.2 1009.4 0.0
20/01:30pm 39.6 36.6 2.3 10 19.7 SSE 7 13 4 7 1010.5 1009.7 0.0
20/01:00pm 39.4 34.9 2.2 10 19.6 SSW 15 20 8 11 1011.1 1010.3 0.0
20/12:30pm 38.8 35.1 4.3 12 18.7 ESE 13 19 7 10 1011.5 1010.7 0.0
20/12:00pm 39.2 34.2 3.4 11 19.2 SSW 19 28 10 15 1012.2 1011.4 0.0
20/11:30am 38.5 35.1 4.1 12 18.6 SSW 11 20 6 11 1012.9 1012.1 0.0
20/11:00am 37.0 33.2 4.0 13 17.6 SSW 13 22 7 12 1013.6 1012.8 0.0
20/10:30am 36.5 31.5 3.7 13 17.4 S 19 26 10 14 1014.2 1013.3 0.0
20/10:00am 35.5 30.4 3.9 14 16.7 SSW 20 28 11 15 1014.8 1013.9 0.0
20/09:30am 34.3 30.9 5.8 17 15.5 S 13 28 7 15 1015.2 1014.3 0.0
20/09:00am 34.0 31.1 6.3 18 15.1 S 11 20 6 11 1015.5 1014.6 0.0
20/08:30am 32.9 30.8 8.4 22 13.8 SSW 9 17 5 9 1015.6 1014.7 0.0
20/08:00am 31.7 28.9 8.7 24 12.9 WSW 13 19 7 10 1015.7 1014.8 0.0
20/07:30am 30.9 28.4 9.7 27 12.0 WSW 13 19 7 10 1015.5 1014.6 0.0
20/07:00am 29.7 27.5 10.8 31 10.9 W 13 17 7 9 1015.2 1014.3 0.0
20/06:30am 27.6 27.1 14.9 45 7.7 W 11 15 6 8 1014.7 1013.8 0.0
20/06:00am 24.7 24.5 13.6 50 6.5 W 7 11 4 6 1014.5 1013.6 0.0
20/05:30am 23.4 22.7 11.5 47 6.7 W 6 9 3 5 1014.1 1013.2 0.0
20/05:00am 23.6 22.5 10.6 44 7.2 WNW 7 11 4 6 1013.5 1012.7 0.0
20/04:30am 24.8 23.8 10.3 40 8.1 NW 6 9 3 5 1013.1 1012.3 0.0
20/04:00am 24.4 22.7 9.9 40 8.0 WNW 9 13 5 7 1012.7 1011.9 0.0
20/03:30am 23.9 22.0 9.1 39 8.0 WNW 9 13 5 7 1012.5 1011.7 0.0
20/03:00am 24.7 22.6 9.8 39 8.2 NNW 11 11 6 6 1012.4 1011.6 0.0
20/02:30am 25.5 23.0 9.7 37 8.7 WNW 13 13 7 7 1012.0 1011.2 0.0
20/02:00am 26.2 23.6 9.5 35 9.2 N 13 15 7 8 1012.1 1011.3 0.0
20/01:30am 27.2 24.3 9.5 33 9.8 N 15 20 8 11 1012.1 1011.3 0.0
20/01:00am 25.3 21.3 5.0 27 10.3 N 15 22 8 12 1011.9 1011.1 0.0
20/12:30am 24.2 21.9 2.9 25 10.3 N 4 13 2 7 1011.6 1010.8 0.0
20/12:00am 24.7 21.3 1.6 22 11.0 NNW 9 15 5 8 1011.3 1010.5 0.0
 
Date/Time
WST
Temp
°C
App
Temp
°C
Dew
Point
Rel
Hum
%
Delta-T
°C
Wind Press
QNH
hPa
Press
MSL
hPa
Rain
since 9 am
mm
Dir
 
Spd
km/h
Gust
km/h
Spd
kts
Gust
kts
19/11:30pm 25.0 21.3 2.4 23 10.9 NW 11 13 6 7 1011.3 1010.5 0.0
19/11:00pm 25.8 22.8 1.8 21 11.6 WNW 7 9 4 5 1011.5 1010.7 0.0
19/10:30pm 25.4 21.9 1.5 21 11.4 NNW 9 11 5 6 1011.7 1010.9 0.0
19/10:00pm 27.1 24.1 0.8 18 12.5 WSW 6 7 3 4 1011.8 1011.0 0.0
19/09:30pm 30.3 26.6 -0.1 14 14.6 SW 9 11 5 6 1011.9 1011.1 0.0
19/09:00pm 31.0 26.8 -0.6 13 15.1 SSW 11 13 6 7 1011.7 1010.9 0.0
19/08:30pm 31.1 27.0 -0.5 13 15.1 SSW 11 13 6 7 1011.6 1010.8 0.0
19/08:00pm 30.6 26.9 0.1 14 14.7 SW 9 11 5 6 1011.4 1010.6 0.0
19/07:30pm 30.8 27.8 2.1 16 14.4 SSW 7 9 4 5 1011.2 1010.4 0.0
19/07:00pm 32.9 29.2 -0.2 12 16.2 S 9 9 5 5 1011.0 1010.2 0.0
19/06:30pm 33.9 31.1 -0.7 11 16.9 SSE 4 7 2 4 1010.7 1009.9 0.0
19/06:00pm 34.8 32.3 -1.3 10 17.5 SSE 2 7 1 4 1010.4 1009.6 0.0
19/05:30pm 36.6 33.7 -1.4 9 18.6 SE 4 6 2 3 1010.1 1009.3 0.0
19/05:00pm 38.0 35.4 -1.9 8 19.6 ENE 2 9 1 5 1009.9 1009.1 0.0
19/04:30pm 38.5 35.2 -1.6 8 19.8 E 6 13 3 7 1009.6 1008.8 0.0
19/04:00pm 38.6 35.1 -1.5 8 19.9 NNE 7 13 4 7 1009.6 1008.8 0.0
19/03:30pm 39.1 34.9 -1.1 8 20.1 NE 11 19 6 10 1009.6 1008.8 0.0
19/03:00pm 39.0 35.7 -1.2 8 20.1 ENE 6 11 3 6 1009.6 1008.8 0.0
19/02:30pm 39.3 34.9 -2.8 7 20.5 NNE 11 19 6 10 1009.7 1008.9 0.0

Other Formats:

Comma delimited format used in spreadsheet applications
http://www.bom.gov.au/fwo/IDW60801/IDW60801.94206.axf

JavaScript Object Notation format (JSON) in row-major order
http://www.bom.gov.au/fwo/IDW60801/IDW60801.94206.json